createdAt,value
2022-09-11T00:00:02.590Z,97702.78
2022-09-11T00:05:03.823Z,97699.91
2022-09-11T00:10:05.085Z,97701.69
2022-09-11T00:15:07.452Z,97695.81
2022-09-11T00:20:08.736Z,97691.94
2022-09-11T00:25:10.052Z,97687.13
2022-09-11T00:30:11.291Z,97703.72
2022-09-11T00:35:12.901Z,97699.53
2022-09-11T00:40:15.480Z,97696.97
2022-09-11T00:45:17.846Z,97684.47
2022-09-11T00:50:19.997Z,97690.38
2022-09-11T00:55:21.238Z,97679.94
2022-09-11T01:00:23.088Z,97678.72
2022-09-11T01:05:24.611Z,97673.00
2022-09-11T01:10:25.934Z,97675.34
2022-09-11T01:15:27.162Z,97672.03
2022-09-11T01:20:28.438Z,97676.81
2022-09-11T01:25:29.662Z,97668.81
2022-09-11T01:30:30.902Z,97670.22
2022-09-11T01:35:32.196Z,97664.63
2022-09-11T01:40:35.114Z,97662.84
2022-09-11T01:45:37.303Z,97665.09
2022-09-11T01:50:38.695Z,97655.00
2022-09-11T01:55:39.948Z,97662.09
2022-09-11T02:00:41.204Z,97667.25
2022-09-11T02:05:43.930Z,97663.22
2022-09-11T02:10:45.375Z,97663.97
2022-09-11T02:15:46.631Z,97664.28
2022-09-11T02:20:47.863Z,97663.28
2022-09-11T02:25:49.217Z,97654.56
2022-09-11T02:30:50.576Z,97656.06
2022-09-11T02:35:52.154Z,97655.91
2022-09-11T02:40:53.746Z,97649.09
2022-09-11T02:45:55.130Z,97648.94
2022-09-11T02:50:56.861Z,97649.91
2022-09-11T02:55:58.292Z,97645.16
2022-09-11T03:00:59.711Z,97643.63
2022-09-11T03:06:00.974Z,97641.09
2022-09-11T03:11:02.283Z,97634.44
2022-09-11T03:16:04.849Z,97637.03
2022-09-11T03:21:06.129Z,97631.63
2022-09-11T03:26:07.510Z,97629.53
2022-09-11T03:31:09.574Z,97637.97
2022-09-11T03:36:10.850Z,97629.75
2022-09-11T03:41:12.107Z,97627.56
2022-09-11T03:46:13.481Z,97632.41
2022-09-11T03:51:17.807Z,97628.09
2022-09-11T03:56:19.067Z,97623.06
2022-09-11T04:01:20.307Z,97617.13
2022-09-11T04:06:21.662Z,97619.88
2022-09-11T04:11:22.893Z,97621.09
2022-09-11T04:16:24.141Z,97624.66
2022-09-11T04:21:25.438Z,97617.19
2022-09-11T04:26:26.708Z,97615.03
2022-09-11T04:31:28.057Z,97616.63
2022-09-11T04:36:30.048Z,97622.09
2022-09-11T04:41:31.354Z,97624.59
2022-09-11T04:46:33.364Z,97630.31
2022-09-11T04:51:34.816Z,97626.03
2022-09-11T04:56:37.887Z,97629.81
2022-09-11T05:01:39.700Z,97627.31
2022-09-11T05:06:40.998Z,97622.84
2022-09-11T05:11:42.313Z,97635.53
2022-09-11T05:16:45.138Z,97634.69
2022-09-11T05:21:46.389Z,97641.69
2022-09-11T05:26:47.643Z,97638.69
2022-09-11T05:31:49.666Z,97636.59
2022-09-11T05:36:52.082Z,97642.50
2022-09-11T05:41:53.327Z,97644.75
2022-09-11T05:46:55.128Z,97646.06
2022-09-11T05:51:56.392Z,97659.50
2022-09-11T05:56:57.665Z,97665.56
2022-09-11T06:01:58.926Z,97674.56
2022-09-11T06:07:00.182Z,97682.47
2022-09-11T06:12:01.789Z,97687.28
2022-09-11T06:17:03.031Z,97677.88
2022-09-11T06:22:04.351Z,97682.63
2022-09-11T06:27:05.652Z,97679.59
2022-09-11T06:32:06.875Z,97691.09
2022-09-11T06:37:08.133Z,97696.94
2022-09-11T06:42:10.717Z,97700.53
2022-09-11T06:47:13.452Z,97705.97
2022-09-11T06:52:14.801Z,97712.63
2022-09-11T06:57:16.160Z,97716.88
2022-09-11T07:02:17.474Z,97722.09
2022-09-11T07:07:18.764Z,97729.44
2022-09-11T07:12:22.783Z,97736.84
2022-09-11T07:17:24.009Z,97742.44
2022-09-11T07:22:25.292Z,97749.69
2022-09-11T07:27:26.535Z,97754.84
2022-09-11T07:32:27.766Z,97750.78
2022-09-11T07:37:28.992Z,97758.31
2022-09-11T07:42:30.283Z,97754.31
2022-09-11T07:47:33.922Z,97756.53
2022-09-11T07:52:36.679Z,97753.25
2022-09-11T07:57:38.017Z,97762.59
2022-09-11T08:02:39.389Z,97759.53
2022-09-11T08:07:40.630Z,97755.16
2022-09-11T08:12:41.970Z,97755.41
2022-09-11T08:17:43.231Z,97758.28
2022-09-11T08:22:44.466Z,97770.88
2022-09-11T08:27:45.696Z,97781.50
2022-09-11T08:32:46.943Z,97786.53
2022-09-11T08:37:51.606Z,97792.13
2022-09-11T08:42:55.797Z,97805.06
2022-09-11T08:47:57.061Z,97809.06
2022-09-11T08:52:58.300Z,97812.00
2022-09-11T08:57:59.528Z,97814.47
2022-09-11T09:03:02.514Z,97806.19
2022-09-11T09:08:04.566Z,97815.84
2022-09-11T09:13:05.809Z,97814.69
2022-09-11T09:18:07.017Z,97826.69
2022-09-11T09:23:08.233Z,97830.31
2022-09-11T09:28:09.499Z,97820.69
2022-09-11T09:33:13.313Z,97825.69
2022-09-11T09:38:14.707Z,97835.38
2022-09-11T09:43:15.957Z,97833.22
2022-09-11T09:48:17.191Z,97839.78
2022-09-11T09:53:18.518Z,97840.72
2022-09-11T09:58:19.761Z,97844.38
2022-09-11T10:03:21.038Z,97840.91
2022-09-11T10:08:24.794Z,97843.13
2022-09-11T10:13:26.109Z,97832.22
2022-09-11T10:18:27.433Z,97833.91
2022-09-11T10:23:29.619Z,97835.56
2022-09-11T10:28:31.357Z,97826.91
2022-09-11T10:33:32.805Z,97830.69
2022-09-11T10:38:36.932Z,97823.22
2022-09-11T10:43:40.574Z,97821.63
2022-09-11T10:54:27.861Z,97823.84
2022-09-11T10:59:29.107Z,97836.28
2022-09-11T11:04:32.511Z,97837.22
2022-09-11T11:09:33.835Z,97825.59
2022-09-11T11:14:35.079Z,97825.56
2022-09-11T11:19:36.327Z,97837.22
2022-09-11T11:24:37.758Z,97827.59
2022-09-11T11:29:51.078Z,97829.91
2022-09-11T11:34:56.984Z,97822.00
2022-09-11T11:39:58.344Z,97820.19
2022-09-11T11:45:00.328Z,97824.88
2022-09-11T11:50:01.839Z,97823.09
2022-09-11T11:55:03.152Z,97820.94
2022-09-11T12:00:05.086Z,97818.44
2022-09-11T12:05:09.549Z,97819.81
2022-09-11T12:10:10.761Z,97823.94
2022-09-11T12:15:12.114Z,97831.75
2022-09-11T12:20:13.503Z,97836.38
2022-09-11T12:25:14.857Z,97834.91
2022-09-11T12:30:16.453Z,97833.41
2022-09-11T12:35:20.970Z,97827.66
2022-09-11T12:40:22.986Z,97825.19
2022-09-11T12:45:25.210Z,97830.22
2022-09-11T12:50:26.519Z,97830.19
2022-09-11T12:55:27.768Z,97809.19
2022-09-11T13:00:29.113Z,97792.16
2022-09-11T13:05:34.601Z,97781.88
2022-09-11T13:10:36.753Z,97786.47
2022-09-11T13:15:44.321Z,97776.69
2022-09-11T13:20:45.638Z,97777.78
2022-09-11T13:25:47.480Z,97769.88
2022-09-11T13:30:48.761Z,97752.03
2022-09-11T13:35:50.060Z,97759.19
2022-09-11T13:40:54.085Z,97752.09
2022-09-11T13:45:55.368Z,97731.94
2022-09-11T13:50:58.479Z,97737.88
2022-09-11T13:56:00.299Z,97757.69
2022-09-11T14:01:01.586Z,97769.06
2022-09-11T14:06:05.976Z,97780.03
2022-09-11T14:11:11.182Z,97789.25
2022-09-11T14:16:13.465Z,97797.31
2022-09-11T14:21:15.183Z,97799.38
2022-09-11T14:26:17.017Z,97808.53
2022-09-11T14:31:21.176Z,97797.66
2022-09-11T14:36:22.739Z,97801.25
2022-09-11T14:41:23.943Z,97806.28
2022-09-11T14:51:26.633Z,97791.97
2022-09-11T14:56:28.027Z,97792.78
2022-09-11T15:01:31.223Z,97786.13
2022-09-11T15:06:32.529Z,97782.47
2022-09-11T15:11:38.757Z,97785.69
2022-09-11T15:16:40.627Z,97776.09
2022-09-11T15:21:41.944Z,97785.03
2022-09-11T15:26:43.271Z,97792.69
2022-09-11T15:31:48.052Z,97787.41
2022-09-11T15:36:50.918Z,97770.63
2022-09-11T15:41:52.143Z,97778.78
2022-09-11T15:46:53.416Z,97779.50
2022-09-11T15:51:58.420Z,97769.69
2022-09-11T15:56:59.829Z,97780.09
2022-09-11T16:02:01.139Z,97775.41
2022-09-11T16:07:02.514Z,97775.53
2022-09-11T16:12:03.793Z,97776.22
2022-09-11T16:17:05.788Z,97779.69
2022-09-11T16:22:07.114Z,97778.06
2022-09-11T16:27:08.465Z,97780.69
2022-09-11T16:32:09.728Z,97786.53
2022-09-11T16:37:12.458Z,97784.25
2022-09-11T16:42:14.612Z,97789.84
2022-09-11T16:47:16.367Z,97796.94
2022-09-11T16:52:17.703Z,97808.16
2022-09-11T16:57:19.572Z,97822.84
2022-09-11T17:02:20.856Z,97822.53
2022-09-11T17:07:23.772Z,97816.25
2022-09-11T17:12:24.991Z,97822.16
2022-09-11T17:17:26.243Z,97833.41
2022-09-11T17:22:29.742Z,97834.59
2022-09-11T17:27:31.321Z,97830.97
2022-09-11T17:32:32.611Z,97837.00
2022-09-11T17:37:33.855Z,97839.50
2022-09-11T17:42:35.185Z,97836.72
2022-09-11T17:47:36.995Z,97844.84
2022-09-11T17:52:38.312Z,97842.91
2022-09-11T17:57:40.740Z,97846.03
2022-09-11T18:02:42.065Z,97860.06
2022-09-11T18:07:43.328Z,97842.81
2022-09-11T18:12:44.603Z,97856.75
2022-09-11T18:17:47.702Z,97864.38
2022-09-11T18:22:50.237Z,97866.53
2022-09-11T18:27:51.492Z,97866.22
2022-09-11T18:32:52.731Z,97877.34
2022-09-11T18:37:54.064Z,97875.69
2022-09-11T18:42:55.388Z,97882.59
2022-09-11T18:47:56.735Z,97895.06
2022-09-11T18:53:00.059Z,97895.16
2022-09-11T18:58:01.499Z,97899.00
2022-09-11T19:03:02.757Z,97904.75
2022-09-11T19:08:04.094Z,97910.97
2022-09-11T19:13:05.843Z,97923.38
2022-09-11T19:18:07.370Z,97926.06
2022-09-11T19:23:09.215Z,97919.34
2022-09-11T19:28:11.826Z,97929.69
2022-09-11T19:33:13.069Z,97941.88
2022-09-11T19:38:14.378Z,97941.34
2022-09-11T19:43:15.859Z,97942.00
2022-09-11T19:48:17.847Z,97935.13
2022-09-11T19:53:19.593Z,97937.97
2022-09-11T19:58:23.994Z,97937.84
2022-09-11T20:03:28.600Z,97938.81
2022-09-11T20:08:30.271Z,97944.78
2022-09-11T20:13:31.724Z,97947.69
2022-09-11T20:29:41.703Z,97945.19
2022-09-11T20:34:42.971Z,97952.66
2022-09-11T20:39:44.240Z,97942.22
2022-09-11T20:44:45.507Z,97942.44
2022-09-11T20:49:50.572Z,97940.88
2022-09-11T20:54:51.895Z,97944.09
2022-09-11T20:59:53.801Z,97942.31
2022-09-11T21:04:55.064Z,97946.31
2022-09-11T21:10:02.503Z,97937.19
2022-09-11T21:15:03.784Z,97944.19
2022-09-11T21:20:05.111Z,97942.06
2022-09-11T21:25:08.931Z,97941.66
2022-09-11T21:30:10.291Z,97943.91
2022-09-11T21:35:11.604Z,97939.31
2022-09-11T21:40:13.686Z,97950.47
2022-09-11T21:45:14.933Z,97946.84
2022-09-11T21:50:16.390Z,97950.50
2022-09-11T21:55:17.702Z,97948.31
2022-09-11T22:00:18.953Z,97940.31
2022-09-11T22:05:20.395Z,97949.06
2022-09-11T22:10:23.435Z,97946.97
2022-09-11T22:15:24.718Z,97945.22
2022-09-11T22:20:26.369Z,97943.09
2022-09-11T22:25:27.711Z,97936.13
2022-09-11T22:30:30.154Z,97946.09
2022-09-11T22:35:31.399Z,97946.09
2022-09-11T22:40:32.760Z,97943.19
2022-09-11T22:45:34.051Z,97940.38
2022-09-11T22:50:35.349Z,97941.88
2022-09-11T22:55:36.583Z,97936.13
2022-09-11T23:00:37.880Z,97941.94
2022-09-11T23:05:58.230Z,97943.16
2022-09-11T23:11:00.350Z,97945.38
2022-09-11T23:16:01.650Z,97946.06
2022-09-11T23:21:02.935Z,97943.84
2022-09-11T23:26:04.293Z,97944.84
2022-09-11T23:31:05.542Z,97945.03
2022-09-11T23:36:06.792Z,97944.31
2022-09-11T23:41:08.042Z,97935.22
2022-09-11T23:46:09.277Z,97923.81
2022-09-11T23:51:10.588Z,97934.69
2022-09-11T23:56:11.879Z,97927.47
